Pagrindinis puslapis
METAR-TAF:

METAR-TAF

Oro uostai :

Ali Al Salem Air Base, Kuveitas

platuma: 29-20-48N, ilguma: 47-31-14E, Aukštis: 144 m

Dabartinis oras

Ataskaita buvo paskelbta 47 minutes, ne 05:55 UTC
Vėjas 8 kt iš Pietų/Pietvakarių
Temperatūra 38°C
Drėgmė 15%
Slėgis 1007 hPa
Matomumas 10 km arba daugiau
Giedras dangus

METAR: OKAS 240555Z AUTO 21008KT 9999 CLR 38/07 A2973 RMK AO2 SLP061 T03800068 10380 20267 51011 $

Laikas: 09:42 (06:42 UTC)

Prognozė

Ataskaita buvo paskelbta 6 valandos ir 42 minutes, ne 00:00 UTC
Prognozė galioja nuo 24 metu 00 UTC su 25 metu 06 UTC
Vėjas 6 kt nuo kintamojo kryptimis
Matomumas 10 km arba daugiau
Giedras dangus
Tapsmas
nuo 24 metu 08 UTC su 24 metu 09 UTC
Vėjas 10 kt iš Šiaurės Vakarų
Matomumas 10 km arba daugiau
Giedras dangus
Tapsmas
nuo 24 metu 21 UTC su 24 metu 22 UTC
Vėjas 7 kt iš Pietvakarių
Matomumas 10 km arba daugiau
Giedras dangus

TAF: OKAS 240000Z 2400/2506 VRB06KT 9999 SKC QNH2968INS BECMG 2408/2409 31010KT 9999 SKC QNH2964INS BECMG 2421/2422 22007KT 9999 SKC QNH2963INS TX42/2412Z TN26/2401Z

Orai ataskaitas ir orų prognozės (METAR, TAF).

turimą stotys yra geltonos ir raudonos taškus žemėlapyje.

Perkelti pele per norėdami pamatyti stoties vardą.

Tada spustelėkite, norėdami matyti oro stebėjimo ir prognozės.

Norėdami pakeisti žemėlapį: spustelėkite ant žalios mygtukų su juodo kryžiaus žemyn,; žalią mygtuką su brūkšneliu, jei norite nutolinti; arba žalių rodyklių gretimoms žemėlapius.


METAR-TAF: